Time;durP1;ratioP1;P1;durP2;ratioP2;P2;SDS_P1;SDS_P2;PMS_P1;PMS_P2;Temp;Humidity;BMP_temperature;BMP_pressure;BME280_temperature;BME280_humidity;BME280_pressure;Samples;Min_cycle;Max_cycle;Signal;HPM_P1;HPM_P2
2023/11/05 00:00:10;;;;;;;21.40;6.10;;;14.40;61.60;;;;;;349624;28;891;-58
2023/11/05 00:00:21;;;;;;;22.20;6.32;;;14.40;61.60;;;;;;349577;28;1122;-59
2023/11/05 00:00:31;;;;;;;19.55;5.90;;;14.40;61.60;;;;;;349639;28;932;-57
2023/11/05 00:00:42;;;;;;;20.38;6.00;;;14.40;61.70;;;;;;349575;28;1360;-57
2023/11/05 00:00:53;;;;;;;22.55;6.07;;;14.40;61.70;;;;;;349618;28;1071;-58
2023/11/05 00:01:04;;;;;;;24.73;6.27;;;14.40;61.60;;;;;;349623;28;840;-57
2023/11/05 00:01:15;;;;;;;24.27;6.10;;;14.40;61.50;;;;;;349597;28;1265;-57
2023/11/05 00:01:25;;;;;;;22.67;5.88;;;14.40;61.80;;;;;;349525;28;1114;-57
2023/11/05 00:01:36;;;;;;;21.15;5.72;;;14.40;61.80;;;;;;349641;28;855;-57
2023/11/05 00:01:47;;;;;;;21.70;5.85;;;14.40;61.80;;;;;;349677;28;821;-60
2023/11/05 00:01:58;;;;;;;21.83;5.97;;;14.40;61.70;;;;;;349589;28;2397;-58
2023/11/05 00:02:08;;;;;;;24.02;6.03;;;14.40;61.60;;;;;;349663;28;888;-57
2023/11/05 00:02:19;;;;;;;23.13;5.80;;;14.40;61.60;;;;;;349583;28;1001;-57
2023/11/05 00:02:30;;;;;;;25.05;5.78;;;14.40;61.60;;;;;;349630;28;1075;-58
2023/11/05 00:02:41;;;;;;;26.58;6.68;;;14.40;61.60;;;;;;349628;28;908;-56
2023/11/05 00:02:51;;;;;;;26.17;6.78;;;14.40;61.60;;;;;;349594;28;1031;-57
2023/11/05 00:03:02;;;;;;;23.93;6.60;;;14.40;61.70;;;;;;349633;28;853;-57
2023/11/05 00:03:14;;;;;;;23.92;6.35;;;14.40;61.70;;;;;;349495;28;1126;-58
2023/11/05 00:03:25;;;;;;;25.85;6.60;;;14.40;61.60;;;;;;349660;28;1004;-56
2023/11/05 00:03:36;;;;;;;26.83;6.82;;;14.40;61.50;;;;;;349614;28;995;-57
2023/11/05 00:03:46;;;;;;;23.55;6.40;;;14.40;61.50;;;;;;349573;28;1264;-58
2023/11/05 00:03:57;;;;;;;22.70;6.27;;;14.40;61.40;;;;;;349672;28;813;-56
2023/11/05 00:04:08;;;;;;;21.33;5.90;;;14.40;61.40;;;;;;349536;28;964;-57
2023/11/05 00:04:19;;;;;;;20.67;5.70;;;14.40;61.40;;;;;;349632;28;1101;-57
2023/11/05 00:04:29;;;;;;;19.70;5.47;;;14.40;61.40;;;;;;349571;28;1649;-57
2023/11/05 00:04:41;;;;;;;20.27;5.55;;;14.40;61.50;;;;;;349585;28;1145;-57
2023/11/05 00:04:52;;;;;;;22.27;6.10;;;14.40;61.50;;;;;;349538;28;1513;-57
2023/11/05 00:05:02;;;;;;;20.83;6.03;;;14.40;61.60;;;;;;349509;28;1540;-59
2023/11/05 00:05:14;;;;;;;20.00;6.15;;;14.40;61.70;;;;;;349622;28;853;-60
2023/11/05 00:05:25;;;;;;;20.08;6.40;;;14.40;61.60;;;;;;349646;28;1039;-59
2023/11/05 00:05:35;;;;;;;22.63;6.67;;;14.40;61.50;;;;;;349556;28;1586;-58
2023/11/05 00:05:46;;;;;;;23.27;6.80;;;14.50;61.50;;;;;;349648;28;822;-57
2023/11/05 00:05:57;;;;;;;24.83;6.68;;;14.40;61.40;;;;;;349546;28;1020;-58
2023/11/05 00:06:08;;;;;;;23.85;6.43;;;14.50;61.50;;;;;;349565;28;1078;-57
2023/11/05 00:06:19;;;;;;;24.15;6.57;;;14.50;61.40;;;;;;349587;28;935;-57
2023/11/05 00:06:31;;;;;;;24.17;6.90;;;14.50;61.30;;;;;;349643;28;899;-58
2023/11/05 00:06:42;;;;;;;25.65;7.55;;;14.50;61.40;;;;;;349650;28;1086;-57
2023/11/05 00:06:53;;;;;;;26.10;7.55;;;14.50;61.60;;;;;;349566;28;1070;-57
2023/11/05 00:07:03;;;;;;;25.40;7.55;;;14.50;61.70;;;;;;349604;28;996;-59
2023/11/05 00:07:14;;;;;;;22.07;6.80;;;14.50;61.80;;;;;;349634;28;1908;-57
2023/11/05 00:07:25;;;;;;;23.05;6.80;;;14.50;61.80;;;;;;349583;28;1212;-58
2023/11/05 00:07:36;;;;;;;23.80;6.43;;;14.40;61.80;;;;;;349528;28;1864;-56
2023/11/05 00:07:47;;;;;;;24.52;6.00;;;14.50;61.80;;;;;;349660;28;849;-56
2023/11/05 00:07:57;;;;;;;22.25;5.65;;;14.40;61.70;;;;;;349653;28;1003;-58
2023/11/05 00:08:08;;;;;;;22.00;5.87;;;14.40;61.50;;;;;;349630;28;857;-57
2023/11/05 00:08:19;;;;;;;21.13;5.93;;;14.40;61.40;;;;;;349453;28;1560;-57
2023/11/05 00:08:29;;;;;;;21.73;6.05;;;14.40;61.10;;;;;;349627;28;829;-57
2023/11/05 00:08:40;;;;;;;22.50;6.00;;;14.30;61.40;;;;;;349590;28;1106;-57
2023/11/05 00:08:51;;;;;;;24.73;6.17;;;14.30;61.50;;;;;;349678;28;909;-58
2023/11/05 00:09:02;;;;;;;26.48;6.28;;;14.30;61.50;;;;;;349531;28;1095;-57
2023/11/05 00:09:12;;;;;;;26.20;6.47;;;14.30;61.50;;;;;;349644;28;1010;-56
2023/11/05 00:09:23;;;;;;;23.25;6.35;;;14.30;61.50;;;;;;349571;28;2632;-58
2023/11/05 00:09:34;;;;;;;21.23;5.97;;;14.30;61.60;;;;;;349601;28;1285;-57
2023/11/05 00:09:44;;;;;;;22.83;5.97;;;14.40;61.60;;;;;;349541;28;1047;-57
2023/11/05 00:09:55;;;;;;;23.27;6.10;;;14.30;61.40;;;;;;349624;28;1015;-57
2023/11/05 00:10:06;;;;;;;23.02;6.50;;;14.30;61.30;;;;;;349541;28;1095;-59
2023/11/05 00:10:17;;;;;;;24.45;6.40;;;14.30;61.30;;;;;;349625;28;971;-56
2023/11/05 00:10:27;;;;;;;25.20;6.20;;;14.30;61.40;;;;;;349537;28;1090;-57
2023/11/05 00:10:38;;;;;;;26.27;6.03;;;14.30;61.50;;;;;;349643;28;979;-58
2023/11/05 00:10:49;;;;;;;24.02;6.22;;;14.30;61.50;;;;;;349648;28;1978;-57
2023/11/05 00:10:59;;;;;;;21.42;6.00;;;14.30;61.60;;;;;;349607;28;868;-57
2023/11/05 00:11:10;;;;;;;22.67;5.97;;;14.30;61.60;;;;;;349529;28;984;-57
2023/11/05 00:11:21;;;;;;;22.60;5.72;;;14.30;61.50;;;;;;349566;28;1098;-58
2023/11/05 00:11:32;;;;;;;25.48;5.93;;;14.30;61.60;;;;;;349563;28;1227;-56
2023/11/05 00:11:42;;;;;;;25.90;6.05;;;14.20;61.70;;;;;;349664;28;944;-57
2023/11/05 00:11:53;;;;;;;27.10;5.93;;;14.30;61.70;;;;;;349553;28;979;-56
2023/11/05 00:12:04;;;;;;;26.77;6.13;;;14.30;61.60;;;;;;349527;28;1395;-57
2023/11/05 00:12:15;;;;;;;23.70;5.85;;;14.30;61.60;;;;;;349566;28;1078;-57
2023/11/05 00:12:25;;;;;;;22.08;5.82;;;14.30;61.60;;;;;;349577;28;906;-57
2023/11/05 00:12:36;;;;;;;20.00;5.40;;;14.30;61.80;;;;;;349602;28;868;-57
2023/11/05 00:12:47;;;;;;;21.60;5.37;;;14.30;61.90;;;;;;349655;28;1019;-57
2023/11/05 00:12:57;;;;;;;23.90;5.78;;;14.40;62.20;;;;;;349545;28;1083;-58
2023/11/05 00:13:08;;;;;;;23.00;6.00;;;14.30;62.10;;;;;;349632;28;948;-57
2023/11/05 00:13:19;;;;;;;20.90;5.90;;;14.30;61.90;;;;;;349612;28;995;-57
2023/11/05 00:13:30;;;;;;;20.95;5.88;;;14.30;61.80;;;;;;349482;28;1445;-57
2023/11/05 00:13:40;;;;;;;23.90;6.03;;;14.30;61.90;;;;;;349640;28;1078;-57
2023/11/05 00:13:51;;;;;;;25.00;6.32;;;14.30;61.80;;;;;;349582;28;1099;-57
2023/11/05 00:14:02;;;;;;;24.27;6.20;;;14.30;61.70;;;;;;349566;28;1013;-57
2023/11/05 00:14:13;;;;;;;22.17;5.85;;;14.30;61.70;;;;;;349614;28;1089;-57
2023/11/05 00:14:24;;;;;;;22.15;5.93;;;14.40;61.80;;;;;;349596;28;1106;-57
2023/11/05 00:14:34;;;;;;;19.73;5.80;;;14.40;61.70;;;;;;349534;28;967;-57
2023/11/05 00:14:45;;;;;;;21.02;6.10;;;14.30;61.50;;;;;;349591;28;1043;-57
2023/11/05 00:14:56;;;;;;;19.77;5.85;;;14.30;61.60;;;;;;349642;28;987;-56
2023/11/05 00:15:08;;;;;;;21.02;5.80;;;14.30;61.80;;;;;;349512;28;1035;-57
2023/11/05 00:15:18;;;;;;;21.48;5.85;;;14.30;61.80;;;;;;349378;28;1582;-57
2023/11/05 00:15:29;;;;;;;25.13;6.27;;;14.30;61.90;;;;;;349582;28;1535;-57
2023/11/05 00:15:40;;;;;;;25.88;6.15;;;14.30;61.80;;;;;;349490;28;1413;-56
2023/11/05 00:15:54;;;;;;;23.58;5.80;;;14.30;61.90;;;;;;349653;28;991;-56
2023/11/05 00:16:05;;;;;;;17.90;5.20;;;14.30;62.20;;;;;;349492;28;1090;-57
2023/11/05 00:16:15;;;;;;;19.83;5.63;;;14.30;62.40;;;;;;349579;28;1007;-58
2023/11/05 00:16:26;;;;;;;25.80;6.30;;;14.30;62.20;;;;;;349642;28;1011;-57
2023/11/05 00:16:37;;;;;;;31.03;6.50;;;14.30;61.90;;;;;;349475;28;1653;-58
2023/11/05 00:16:48;;;;;;;28.38;6.15;;;14.30;61.70;;;;;;349582;28;1083;-57
2023/11/05 00:16:58;;;;;;;26.45;5.80;;;14.30;61.60;;;;;;349583;28;1514;-57
2023/11/05 00:17:09;;;;;;;21.13;5.68;;;14.30;61.50;;;;;;349643;28;1054;-57
2023/11/05 00:17:20;;;;;;;21.47;5.77;;;14.40;61.80;;;;;;349466;28;1987;-57
2023/11/05 00:17:31;;;;;;;20.13;5.78;;;14.30;62.10;;;;;;349630;28;888;-57
2023/11/05 00:17:41;;;;;;;20.98;5.50;;;14.40;62.50;;;;;;349599;28;1050;-57
2023/11/05 00:17:52;;;;;;;21.92;5.95;;;14.40;62.90;;;;;;349575;28;1114;-58
2023/11/05 00:18:03;;;;;;;24.80;6.47;;;14.40;62.70;;;;;;349525;28;1054;-58
2023/11/05 00:18:14;;;;;;;26.87;7.20;;;14.40;62.40;;;;;;349645;28;880;-57
2023/11/05 00:18:25;;;;;;;25.35;6.78;;;14.40;62.10;;;;;;349626;28;889;-58
2023/11/05 00:18:36;;;;;;;25.50;6.78;;;14.40;61.90;;;;;;349586;28;1506;-57
2023/11/05 00:18:47;;;;;;;24.00;6.30;;;14.40;61.80;;;;;;349498;28;1024;-57
2023/11/05 00:18:57;;;;;;;23.17;6.00;;;14.40;61.50;;;;;;349612;28;1142;-57
2023/11/05 00:19:08;;;;;;;22.20;5.65;;;14.40;61.40;;;;;;349593;28;1035;-57
2023/11/05 00:19:19;;;;;;;24.55;6.25;;;14.30;61.10;;;;;;349585;28;1075;-57
2023/11/05 00:19:29;;;;;;;24.05;6.32;;;14.30;61.20;;;;;;349539;28;1310;-57
2023/11/05 00:19:41;;;;;;;25.27;6.17;;;14.30;61.20;;;;;;349690;28;793;-57
2023/11/05 00:19:52;;;;;;;24.90;6.25;;;14.20;61.40;;;;;;349537;28;1123;-57
2023/11/05 00:20:07;;;;;;;24.50;6.20;;;14.20;61.70;;;;;;349588;28;967;-57
2023/11/05 00:20:18;;;;;;;24.23;5.97;;;14.20;62.00;;;;;;349583;28;1066;-57
2023/11/05 00:20:29;;;;;;;21.48;5.80;;;14.20;62.10;;;;;;349564;28;1977;-57
2023/11/05 00:20:39;;;;;;;22.15;5.90;;;14.20;62.10;;;;;;349667;28;976;-58
2023/11/05 00:20:50;;;;;;;21.63;6.05;;;14.20;61.90;;;;;;349610;28;1102;-57
2023/11/05 00:21:01;;;;;;;22.50;6.17;;;14.20;61.80;;;;;;349544;28;921;-58
2023/11/05 00:21:12;;;;;;;22.20;6.05;;;14.30;61.70;;;;;;349638;28;927;-57
2023/11/05 00:21:22;;;;;;;23.23;6.30;;;14.30;61.60;;;;;;349582;28;1138;-57
2023/11/05 00:21:34;;;;;;;26.63;6.38;;;14.20;61.50;;;;;;349650;28;1046;-57
2023/11/05 00:21:45;;;;;;;25.90;6.20;;;14.20;61.50;;;;;;349561;28;980;-56
2023/11/05 00:21:55;;;;;;;26.27;6.28;;;14.20;61.70;;;;;;349616;28;828;-58
2023/11/05 00:22:06;;;;;;;24.98;6.13;;;14.20;61.90;;;;;;349596;28;1111;-56
2023/11/05 00:22:18;;;;;;;25.80;6.22;;;14.20;61.90;;;;;;349649;28;1078;-57
2023/11/05 00:22:29;;;;;;;23.42;5.70;;;14.20;61.80;;;;;;349560;28;935;-59
2023/11/05 00:22:40;;;;;;;22.38;5.93;;;14.20;61.70;;;;;;349613;28;979;-57
2023/11/05 00:22:51;;;;;;;23.48;6.32;;;14.20;61.70;;;;;;349627;28;910;-58
2023/11/05 00:23:01;;;;;;;23.87;6.40;;;14.20;61.60;;;;;;349638;28;1041;-56
2023/11/05 00:23:12;;;;;;;24.80;6.40;;;14.20;61.70;;;;;;349540;28;976;-57
2023/11/05 00:23:23;;;;;;;24.90;6.13;;;14.20;61.70;;;;;;349631;28;888;-58
2023/11/05 00:23:34;;;;;;;22.63;5.97;;;14.20;61.70;;;;;;349603;28;1000;-56
2023/11/05 00:23:45;;;;;;;21.45;5.90;;;14.20;61.70;;;;;;349591;28;2621;-57
2023/11/05 00:23:55;;;;;;;20.70;6.10;;;14.20;61.80;;;;;;349540;28;1014;-57
2023/11/05 00:24:06;;;;;;;23.08;6.22;;;14.20;61.90;;;;;;349594;28;1078;-57
2023/11/05 00:24:18;;;;;;;23.10;6.25;;;14.30;62.00;;;;;;349601;28;1007;-58
2023/11/05 00:24:28;;;;;;;23.60;6.20;;;14.30;62.00;;;;;;349621;28;1042;-58
2023/11/05 00:24:39;;;;;;;25.67;6.60;;;14.30;61.80;;;;;;349552;28;1135;-57
2023/11/05 00:24:50;;;;;;;28.30;6.72;;;14.20;61.80;;;;;;349646;28;876;-59
2023/11/05 00:25:01;;;;;;;28.25;6.55;;;14.30;61.70;;;;;;349599;28;849;-57
2023/11/05 00:25:11;;;;;;;26.90;6.18;;;14.20;61.70;;;;;;349636;28;1125;-57
2023/11/05 00:25:22;;;;;;;28.50;6.15;;;14.30;61.50;;;;;;349518;28;1058;-57
2023/11/05 00:25:33;;;;;;;27.77;6.10;;;14.20;61.20;;;;;;349603;28;1034;-57
2023/11/05 00:25:44;;;;;;;27.88;6.22;;;14.20;61.30;;;;;;349559;28;1473;-58
2023/11/05 00:25:55;;;;;;;22.88;5.97;;;14.20;61.40;;;;;;349552;28;1291;-58
2023/11/05 00:26:06;;;;;;;21.00;6.03;;;14.20;61.60;;;;;;349530;28;1126;-57
2023/11/05 00:26:16;;;;;;;20.55;5.97;;;14.10;61.60;;;;;;349652;28;789;-57
2023/11/05 00:26:28;;;;;;;20.48;5.88;;;14.10;61.60;;;;;;349610;28;1019;-57
2023/11/05 00:26:38;;;;;;;20.95;5.65;;;14.10;61.90;;;;;;349605;28;872;-57
2023/11/05 00:26:49;;;;;;;19.75;5.25;;;14.10;62.20;;;;;;349561;28;988;-57
2023/11/05 00:27:00;;;;;;;19.90;5.55;;;14.10;62.20;;;;;;349607;28;959;-57
2023/11/05 00:27:11;;;;;;;23.07;6.13;;;14.10;62.30;;;;;;349579;28;1008;-57
2023/11/05 00:27:21;;;;;;;24.98;6.25;;;14.10;62.00;;;;;;349592;28;860;-57
2023/11/05 00:27:32;;;;;;;25.13;6.15;;;14.10;61.90;;;;;;349631;28;991;-57
2023/11/05 00:27:43;;;;;;;22.42;6.22;;;14.10;61.90;;;;;;349543;28;933;-57
2023/11/05 00:27:53;;;;;;;24.30;6.63;;;14.10;62.20;;;;;;349677;28;892;-57
2023/11/05 00:28:04;;;;;;;23.30;6.10;;;14.20;62.20;;;;;;349562;28;1063;-57
2023/11/05 00:28:15;;;;;;;23.45;5.90;;;14.10;61.90;;;;;;349610;28;948;-57
2023/11/05 00:28:26;;;;;;;22.02;5.75;;;14.10;62.00;;;;;;349665;28;837;-59
2023/11/05 00:28:37;;;;;;;26.63;6.30;;;14.10;62.20;;;;;;349553;28;1024;-58
2023/11/05 00:28:47;;;;;;;25.77;6.18;;;14.10;62.10;;;;;;349594;28;1164;-58
2023/11/05 00:28:58;;;;;;;24.40;6.10;;;14.10;62.10;;;;;;349637;28;970;-57
2023/11/05 00:29:09;;;;;;;21.08;5.53;;;14.10;61.70;;;;;;349596;28;916;-56
2023/11/05 00:29:20;;;;;;;20.92;5.72;;;14.10;61.80;;;;;;349644;28;872;-59
2023/11/05 00:29:30;;;;;;;20.65;5.68;;;14.10;61.90;;;;;;349551;28;1038;-57
2023/11/05 00:29:41;;;;;;;20.92;5.88;;;14.10;62.00;;;;;;349590;28;1448;-56
2023/11/05 00:29:54;;;;;;;20.10;5.77;;;14.10;62.20;;;;;;349630;28;1074;-58
2023/11/05 00:30:05;;;;;;;18.02;5.80;;;14.10;62.20;;;;;;349482;28;1344;-56
2023/11/05 00:30:17;;;;;;;21.08;5.95;;;14.10;62.20;;;;;;349585;28;980;-57
2023/11/05 00:30:28;;;;;;;26.02;6.57;;;14.10;61.90;;;;;;349557;28;996;-57
2023/11/05 00:30:38;;;;;;;25.27;6.47;;;14.20;61.80;;;;;;349599;28;1007;-57
2023/11/05 00:30:49;;;;;;;22.55;6.28;;;14.20;61.60;;;;;;349622;28;876;-56
2023/11/05 00:31:00;;;;;;;22.00;6.03;;;14.20;61.60;;;;;;349570;28;1078;-56
2023/11/05 00:31:10;;;;;;;20.27;5.60;;;14.20;61.70;;;;;;349731;28;984;-57
2023/11/05 00:31:22;;;;;;;22.08;5.50;;;14.20;61.70;;;;;;349645;28;1106;-57
2023/11/05 00:31:32;;;;;;;24.27;5.95;;;14.20;61.70;;;;;;349803;28;948;-57
2023/11/05 00:31:43;;;;;;;24.73;5.93;;;14.20;61.60;;;;;;349779;28;991;-57
2023/11/05 00:31:54;;;;;;;26.30;6.10;;;14.20;61.50;;;;;;349685;28;1696;-56
2023/11/05 00:32:05;;;;;;;27.00;6.13;;;14.20;61.50;;;;;;349716;28;1020;-57
2023/11/05 00:32:16;;;;;;;27.88;6.35;;;14.20;61.50;;;;;;349681;28;1096;-58
2023/11/05 00:32:26;;;;;;;25.47;6.27;;;14.20;61.60;;;;;;349664;28;1599;-57
2023/11/05 00:32:37;;;;;;;23.63;6.20;;;14.20;61.90;;;;;;349719;28;1074;-56
2023/11/05 00:32:48;;;;;;;21.40;5.97;;;14.20;61.90;;;;;;349700;28;987;-57
2023/11/05 00:32:58;;;;;;;21.58;5.88;;;14.20;61.90;;;;;;349734;28;1123;-57
2023/11/05 00:33:09;;;;;;;20.17;5.80;;;14.20;61.90;;;;;;349689;28;1543;-57
2023/11/05 00:33:20;;;;;;;22.58;6.20;;;14.20;61.80;;;;;;349833;28;906;-58
2023/11/05 00:33:31;;;;;;;24.48;6.45;;;14.20;61.60;;;;;;349893;28;916;-57
2023/11/05 00:33:42;;;;;;;25.85;6.57;;;14.20;61.60;;;;;;349811;28;1201;-58
2023/11/05 00:33:53;;;;;;;26.80;6.43;;;14.20;61.80;;;;;;349819;28;1033;-56
2023/11/05 00:34:04;;;;;;;25.30;6.60;;;14.20;61.90;;;;;;349880;28;892;-56
2023/11/05 00:34:14;;;;;;;25.60;6.53;;;14.20;62.00;;;;;;349827;28;1079;-57
2023/11/05 00:34:25;;;;;;;24.13;6.63;;;14.20;62.00;;;;;;349824;28;1341;-56
2023/11/05 00:34:36;;;;;;;22.83;6.50;;;14.30;61.90;;;;;;349825;28;1381;-57
2023/11/05 00:34:46;;;;;;;22.23;6.60;;;14.30;61.70;;;;;;349818;28;1027;-57
2023/11/05 00:34:57;;;;;;;22.92;6.72;;;14.20;61.60;;;;;;349758;28;1095;-58
2023/11/05 00:35:08;;;;;;;24.70;6.63;;;14.20;61.60;;;;;;349790;28;1082;-56
2023/11/05 00:35:19;;;;;;;24.45;6.40;;;14.20;61.40;;;;;;349815;28;818;-57
2023/11/05 00:35:30;;;;;;;25.80;6.43;;;14.20;61.30;;;;;;349814;28;1062;-57
2023/11/05 00:35:44;;;;;;;26.60;6.38;;;14.20;61.50;;;;;;349878;28;816;-57
2023/11/05 00:35:54;;;;;;;25.10;6.53;;;14.20;61.60;;;;;;349889;28;881;-57
2023/11/05 00:36:06;;;;;;;23.42;6.28;;;14.20;61.70;;;;;;349817;28;918;-58
2023/11/05 00:36:17;;;;;;;24.35;6.72;;;14.20;61.70;;;;;;349847;28;868;-57
2023/11/05 00:36:27;;;;;;;24.00;6.10;;;14.20;61.60;;;;;;349828;28;1034;-56
2023/11/05 00:36:38;;;;;;;24.02;6.18;;;14.20;61.60;;;;;;349784;28;1040;-57
2023/11/05 00:36:49;;;;;;;22.48;6.03;;;14.20;61.60;;;;;;349792;28;1095;-57
2023/11/05 00:36:59;;;;;;;19.10;5.95;;;14.20;61.60;;;;;;349817;28;852;-57
2023/11/05 00:37:10;;;;;;;20.00;6.00;;;14.20;61.70;;;;;;349848;28;1019;-57
2023/11/05 00:37:21;;;;;;;20.10;5.80;;;14.20;61.70;;;;;;349748;28;1983;-56
2023/11/05 00:37:32;;;;;;;23.38;6.07;;;14.20;61.80;;;;;;349756;28;1053;-56
2023/11/05 00:37:42;;;;;;;23.70;5.93;;;14.20;61.70;;;;;;349829;28;1153;-56
2023/11/05 00:37:53;;;;;;;25.15;6.38;;;14.20;61.70;;;;;;349896;28;1085;-58
2023/11/05 00:38:04;;;;;;;23.37;5.60;;;14.20;61.80;;;;;;349859;28;1086;-57
2023/11/05 00:38:15;;;;;;;24.48;5.65;;;14.20;61.80;;;;;;349869;28;1038;-57
2023/11/05 00:38:25;;;;;;;23.63;5.38;;;14.20;61.80;;;;;;349777;28;1020;-56
2023/11/05 00:38:37;;;;;;;23.40;5.75;;;14.20;61.90;;;;;;349790;28;1449;-57
2023/11/05 00:38:48;;;;;;;24.52;6.05;;;14.20;61.80;;;;;;349879;28;880;-57
2023/11/05 00:38:58;;;;;;;22.65;6.13;;;14.20;62.00;;;;;;349912;28;920;-56
2023/11/05 00:39:09;;;;;;;22.83;5.95;;;14.20;62.20;;;;;;349853;28;901;-56
2023/11/05 00:39:20;;;;;;;22.15;6.05;;;14.10;62.30;;;;;;349747;28;1078;-56
2023/11/05 00:39:31;;;;;;;26.53;6.43;;;14.20;62.40;;;;;;349847;28;1828;-57
2023/11/05 00:39:43;;;;;;;26.70;6.38;;;14.20;62.40;;;;;;349818;28;1094;-57
2023/11/05 00:39:53;;;;;;;27.40;6.38;;;14.20;62.40;;;;;;349872;28;912;-57
2023/11/05 00:40:05;;;;;;;26.20;6.53;;;14.10;62.40;;;;;;349734;28;1036;-56
2023/11/05 00:40:15;;;;;;;26.80;6.47;;;14.10;62.60;;;;;;349833;28;1027;-56
2023/11/05 00:40:26;;;;;;;24.70;5.90;;;14.20;62.50;;;;;;349877;28;991;-55
2023/11/05 00:40:37;;;;;;;23.55;5.90;;;14.20;62.50;;;;;;349895;28;1086;-57
2023/11/05 00:40:48;;;;;;;25.83;6.35;;;14.20;62.30;;;;;;349880;28;1090;-57
2023/11/05 00:40:59;;;;;;;23.80;6.50;;;14.20;62.10;;;;;;349779;28;1021;-57
2023/11/05 00:41:09;;;;;;;24.00;6.40;;;14.20;62.00;;;;;;349841;28;1075;-57
2023/11/05 00:41:21;;;;;;;21.80;6.10;;;14.20;61.90;;;;;;349786;28;1094;-57
2023/11/05 00:41:32;;;;;;;23.52;6.20;;;14.20;61.80;;;;;;349829;28;1142;-57
2023/11/05 00:41:42;;;;;;;24.58;6.18;;;14.20;61.80;;;;;;349898;28;839;-56
2023/11/05 00:41:53;;;;;;;25.30;6.23;;;14.20;61.90;;;;;;349787;28;1597;-57
2023/11/05 00:42:04;;;;;;;26.30;6.03;;;14.20;62.10;;;;;;349807;28;1150;-58
2023/11/05 00:42:15;;;;;;;27.38;6.20;;;14.20;61.80;;;;;;349718;28;1107;-56
2023/11/05 00:42:25;;;;;;;27.88;5.90;;;14.20;61.90;;;;;;349815;28;979;-55
2023/11/05 00:42:36;;;;;;;25.90;5.95;;;14.20;62.10;;;;;;349791;28;937;-57
2023/11/05 00:42:47;;;;;;;24.13;6.17;;;14.20;62.20;;;;;;349875;28;1039;-57
2023/11/05 00:42:58;;;;;;;23.45;6.65;;;14.20;62.10;;;;;;349743;28;1374;-57
2023/11/05 00:43:08;;;;;;;24.52;6.78;;;14.20;62.00;;;;;;349782;28;1222;-57
2023/11/05 00:43:19;;;;;;;26.02;6.35;;;14.20;62.10;;;;;;349766;28;1035;-58
2023/11/05 00:43:30;;;;;;;28.67;6.38;;;14.20;62.10;;;;;;349827;28;1011;-56
2023/11/05 00:43:41;;;;;;;25.33;5.75;;;14.20;62.10;;;;;;349746;28;1125;-57
2023/11/05 00:43:52;;;;;;;21.58;5.65;;;14.20;62.40;;;;;;349818;28;960;-58
2023/11/05 00:44:03;;;;;;;21.88;5.82;;;14.20;62.30;;;;;;349763;28;978;-57
2023/11/05 00:44:14;;;;;;;22.05;6.55;;;14.20;62.10;;;;;;349831;28;1062;-57
2023/11/05 00:44:25;;;;;;;25.37;6.80;;;14.20;61.90;;;;;;349753;28;1446;-56
2023/11/05 00:44:35;;;;;;;27.13;6.82;;;14.20;61.80;;;;;;349861;28;963;-56
2023/11/05 00:44:46;;;;;;;28.13;6.50;;;14.20;61.90;;;;;;349760;28;959;-57
2023/11/05 00:44:57;;;;;;;25.33;6.35;;;14.10;61.90;;;;;;349827;28;1019;-56
2023/11/05 00:45:08;;;;;;;27.52;6.78;;;14.10;62.00;;;;;;349729;28;1054;-57
2023/11/05 00:45:19;;;;;;;26.27;6.65;;;14.10;62.20;;;;;;349823;28;1039;-57
2023/11/05 00:45:30;;;;;;;25.35;6.53;;;14.10;62.30;;;;;;349803;28;989;-57
2023/11/05 00:45:41;;;;;;;24.77;6.47;;;14.10;62.20;;;;;;349821;28;987;-56
2023/11/05 00:45:51;;;;;;;25.75;6.78;;;14.10;62.10;;;;;;349693;28;1019;-56
2023/11/05 00:46:02;;;;;;;23.48;6.50;;;14.10;62.10;;;;;;349744;28;1078;-57
2023/11/05 00:46:13;;;;;;;22.50;6.15;;;14.10;62.40;;;;;;349796;28;1178;-57
2023/11/05 00:46:24;;;;;;;22.77;6.27;;;14.10;62.30;;;;;;349809;28;967;-56
2023/11/05 00:46:35;;;;;;;22.08;6.30;;;14.10;62.40;;;;;;349829;28;898;-57
2023/11/05 00:46:45;;;;;;;21.70;6.00;;;14.10;62.50;;;;;;349637;28;1447;-56
2023/11/05 00:46:56;;;;;;;23.13;5.78;;;14.10;62.80;;;;;;349686;28;1106;-56
2023/11/05 00:47:07;;;;;;;24.70;5.60;;;14.10;63.00;;;;;;349682;28;1266;-56
2023/11/05 00:47:18;;;;;;;25.15;5.75;;;14.10;63.00;;;;;;349772;28;999;-56
2023/11/05 00:47:29;;;;;;;21.80;5.78;;;14.20;62.90;;;;;;349720;28;1046;-57
2023/11/05 00:47:39;;;;;;;21.60;5.78;;;14.20;62.60;;;;;;349623;28;1647;-57
2023/11/05 00:47:50;;;;;;;24.05;5.90;;;14.20;62.60;;;;;;349679;28;1111;-57
2023/11/05 00:48:01;;;;;;;25.17;6.00;;;14.20;62.60;;;;;;349675;28;1172;-57
2023/11/05 00:48:11;;;;;;;25.80;6.30;;;14.20;62.70;;;;;;349662;28;878;-57
2023/11/05 00:48:22;;;;;;;26.00;6.32;;;14.20;62.70;;;;;;349691;28;1026;-56
2023/11/05 00:48:33;;;;;;;26.75;6.70;;;14.20;62.60;;;;;;349757;28;862;-57
2023/11/05 00:48:44;;;;;;;27.50;7.00;;;14.20;62.50;;;;;;349737;28;1031;-56
2023/11/05 00:48:56;;;;;;;24.88;7.22;;;14.20;62.40;;;;;;349835;28;1142;-57
2023/11/05 00:49:08;;;;;;;23.42;7.08;;;14.20;62.30;;;;;;349643;28;1220;-57
2023/11/05 00:49:19;;;;;;;23.23;7.07;;;14.20;62.20;;;;;;349826;28;1000;-57
2023/11/05 00:49:30;;;;;;;24.90;6.90;;;14.20;62.00;;;;;;349845;28;1003;-56
2023/11/05 00:49:40;;;;;;;27.02;6.55;;;14.20;62.00;;;;;;349734;28;1538;-58
2023/11/05 00:49:51;;;;;;;26.60;6.72;;;14.10;62.00;;;;;;349738;28;1039;-57
2023/11/05 00:50:02;;;;;;;27.90;6.70;;;14.10;62.00;;;;;;349798;28;1130;-58
2023/11/05 00:50:13;;;;;;;28.10;6.65;;;14.10;62.10;;;;;;349806;28;1169;-58
2023/11/05 00:50:24;;;;;;;29.77;6.60;;;14.10;62.20;;;;;;349827;28;1494;-57
2023/11/05 00:50:34;;;;;;;28.90;6.90;;;14.10;62.20;;;;;;349721;28;1413;-56
2023/11/05 00:50:45;;;;;;;27.40;6.73;;;14.10;62.30;;;;;;349831;28;839;-56
2023/11/05 00:50:56;;;;;;;26.25;6.85;;;14.10;62.30;;;;;;349861;28;845;-56
2023/11/05 00:51:07;;;;;;;26.05;6.90;;;14.10;62.40;;;;;;349826;28;1059;-56
2023/11/05 00:51:18;;;;;;;28.25;7.55;;;14.20;62.50;;;;;;349777;28;1082;-57
2023/11/05 00:51:29;;;;;;;29.65;7.32;;;14.10;62.50;;;;;;349700;28;1130;-57
2023/11/05 00:51:40;;;;;;;27.60;7.43;;;14.20;62.60;;;;;;349837;28;1308;-57
2023/11/05 00:51:50;;;;;;;25.25;6.70;;;14.20;62.70;;;;;;349786;28;1099;-57
2023/11/05 00:52:01;;;;;;;22.65;6.57;;;14.20;62.80;;;;;;349842;28;848;-57
2023/11/05 00:52:12;;;;;;;22.45;5.97;;;14.20;62.80;;;;;;349786;28;845;-57
2023/11/05 00:52:23;;;;;;;23.67;6.20;;;14.20;62.70;;;;;;349809;28;1134;-57
2023/11/05 00:52:34;;;;;;;25.40;6.33;;;14.10;62.70;;;;;;349871;28;868;-56
2023/11/05 00:52:44;;;;;;;25.50;6.78;;;14.10;62.90;;;;;;349725;28;1918;-57
2023/11/05 00:52:55;;;;;;;26.33;6.95;;;14.10;63.00;;;;;;349769;28;1408;-56
2023/11/05 00:53:06;;;;;;;29.05;7.15;;;14.10;63.00;;;;;;349827;28;1059;-57
2023/11/05 00:53:17;;;;;;;28.67;7.28;;;14.10;63.00;;;;;;349779;28;922;-57
2023/11/05 00:53:27;;;;;;;25.80;6.72;;;14.20;62.90;;;;;;349803;28;1146;-56
2023/11/05 00:53:38;;;;;;;24.40;6.27;;;14.10;62.90;;;;;;349852;28;929;-57
2023/11/05 00:53:49;;;;;;;27.25;6.15;;;14.10;62.90;;;;;;349736;28;1019;-57
2023/11/05 00:54:00;;;;;;;28.08;6.43;;;14.10;62.80;;;;;;349799;28;1154;-57
2023/11/05 00:54:10;;;;;;;25.35;6.72;;;14.10;62.90;;;;;;349731;28;1407;-58
2023/11/05 00:54:21;;;;;;;24.45;6.95;;;14.10;62.90;;;;;;349715;28;1062;-58
2023/11/05 00:54:32;;;;;;;25.27;6.87;;;14.10;63.20;;;;;;349785;28;1599;-57
2023/11/05 00:54:43;;;;;;;23.67;6.68;;;14.10;63.20;;;;;;349856;28;864;-57
2023/11/05 00:54:54;;;;;;;25.02;6.90;;;14.10;63.30;;;;;;349699;28;1193;-56
2023/11/05 00:55:05;;;;;;;21.83;6.50;;;14.10;63.30;;;;;;349809;28;1047;-59
2023/11/05 00:55:17;;;;;;;23.13;6.32;;;14.10;63.30;;;;;;349794;28;1122;-57
2023/11/05 00:55:27;;;;;;;23.67;6.55;;;14.10;63.40;;;;;;349685;28;1351;-58
2023/11/05 00:55:38;;;;;;;25.30;6.97;;;14.10;63.40;;;;;;349853;28;1134;-58
2023/11/05 00:55:49;;;;;;;24.60;6.90;;;14.10;63.40;;;;;;349867;28;1075;-56
2023/11/05 00:55:59;;;;;;;24.83;6.50;;;14.10;63.20;;;;;;349762;28;1086;-56
2023/11/05 00:56:10;;;;;;;28.75;6.97;;;14.20;63.20;;;;;;349832;28;1058;-57
2023/11/05 00:56:21;;;;;;;33.33;7.65;;;14.10;63.00;;;;;;349865;28;935;-57
2023/11/05 00:56:32;;;;;;;30.42;7.53;;;14.20;63.10;;;;;;349754;28;1054;-57
2023/11/05 00:56:43;;;;;;;25.58;7.00;;;14.10;63.10;;;;;;349835;28;1083;-56
2023/11/05 00:56:53;;;;;;;25.40;6.60;;;14.10;63.20;;;;;;349849;28;778;-57
2023/11/05 00:57:04;;;;;;;26.33;6.43;;;14.10;63.20;;;;;;349816;28;1050;-57
2023/11/05 00:57:15;;;;;;;28.67;6.55;;;14.20;63.20;;;;;;349834;28;1019;-57
2023/11/05 00:57:26;;;;;;;27.30;6.53;;;14.10;63.20;;;;;;349669;28;1884;-57
2023/11/05 00:57:36;;;;;;;29.15;6.50;;;14.10;63.20;;;;;;349853;28;849;-57